sensor_id;sensor_type;location;lat;lon;timestamp;temperature;humidity
16180;DHT22;8196;49.428;10.906;2022-07-10T02:26:46;14.20;99.90
16180;DHT22;8196;49.428;10.906;2022-07-10T02:31:40;14.20;99.90
16180;DHT22;8196;49.428;10.906;2022-07-10T05:21:31;14.80;91.80
16180;DHT22;8196;49.428;10.906;2022-07-10T05:36:13;15.20;87.70
16180;DHT22;8196;49.428;10.906;2022-07-10T05:41:07;15.00;88.10
16180;DHT22;8196;49.428;10.906;2022-07-10T06:20:43;19.30;67.20
16180;DHT22;8196;49.428;10.906;2022-07-10T06:35:25;17.50;67.90
16180;DHT22;8196;49.428;10.906;2022-07-10T06:37:52;17.10;69.20
16180;DHT22;8196;49.428;10.906;2022-07-10T06:57:48;16.60;75.30
16180;DHT22;8196;49.428;10.906;2022-07-10T07:35:37;17.20;64.30
16180;DHT22;8196;49.428;10.906;2022-07-10T07:50:26;17.90;61.40
16180;DHT22;8196;49.428;10.906;2022-07-10T08:39:43;19.20;59.20
16180;DHT22;8196;49.428;10.906;2022-07-10T09:14:22;19.30;54.00
16180;DHT22;8196;49.428;10.906;2022-07-10T09:22:12;19.60;52.80
16180;DHT22;8196;49.428;10.906;2022-07-10T09:34:43;21.70;52.10
16180;DHT22;8196;49.428;10.906;2022-07-10T10:15:16;20.60;51.60
16180;DHT22;8196;49.428;10.906;2022-07-10T10:20:11;20.40;54.80
16180;DHT22;8196;49.428;10.906;2022-07-10T10:35:44;19.10;55.10
16180;DHT22;8196;49.428;10.906;2022-07-10T11:01:04;21.70;52.00
16180;DHT22;8196;49.428;10.906;2022-07-10T11:03:32;22.00;52.00
16180;DHT22;8196;49.428;10.906;2022-07-10T11:13:58;22.60;49.40
16180;DHT22;8196;49.428;10.906;2022-07-10T11:16:25;22.60;49.30
16180;DHT22;8196;49.428;10.906;2022-07-10T11:26:39;21.60;52.20
16180;DHT22;8196;49.428;10.906;2022-07-10T12:11:37;21.50;51.20
16180;DHT22;8196;49.428;10.906;2022-07-10T12:29:03;22.30;48.30
16180;DHT22;8196;49.428;10.906;2022-07-10T12:34:01;22.20;48.10
16180;DHT22;8196;49.428;10.906;2022-07-10T12:36:50;22.70;47.10
16180;DHT22;8196;49.428;10.906;2022-07-10T13:29:27;23.00;46.10
16180;DHT22;8196;49.428;10.906;2022-07-10T13:31:54;23.20;46.20
16180;DHT22;8196;49.428;10.906;2022-07-10T13:36:49;23.40;44.20
16180;DHT22;8196;49.428;10.906;2022-07-10T13:39:17;24.40;45.60
16180;DHT22;8196;49.428;10.906;2022-07-10T13:41:44;24.90;43.60
16180;DHT22;8196;49.428;10.906;2022-07-10T13:44:11;25.60;44.30
16180;DHT22;8196;49.428;10.906;2022-07-10T13:46:41;24.30;43.30
16180;DHT22;8196;49.428;10.906;2022-07-10T13:49:08;23.10;45.10
16180;DHT22;8196;49.428;10.906;2022-07-10T13:54:02;21.90;48.40
16180;DHT22;8196;49.428;10.906;2022-07-10T13:56:29;22.00;48.30
16180;DHT22;8196;49.428;10.906;2022-07-10T13:58:56;22.00;47.60
16180;DHT22;8196;49.428;10.906;2022-07-10T14:01:23;21.80;48.80
16180;DHT22;8196;49.428;10.906;2022-07-10T14:03:50;22.40;48.60
16180;DHT22;8196;49.428;10.906;2022-07-10T14:06:18;22.70;46.50
16180;DHT22;8196;49.428;10.906;2022-07-10T14:08:46;23.00;46.20
16180;DHT22;8196;49.428;10.906;2022-07-10T14:11:12;23.30;45.70
16180;DHT22;8196;49.428;10.906;2022-07-10T14:13:39;24.50;43.70
16180;DHT22;8196;49.428;10.906;2022-07-10T14:16:06;23.60;45.20
16180;DHT22;8196;49.428;10.906;2022-07-10T14:18:33;22.80;46.40
16180;DHT22;8196;49.428;10.906;2022-07-10T14:21:04;22.90;47.00
16180;DHT22;8196;49.428;10.906;2022-07-10T14:23:31;22.40;46.60
16180;DHT22;8196;49.428;10.906;2022-07-10T14:25:58;21.50;49.40
16180;DHT22;8196;49.428;10.906;2022-07-10T14:28:25;21.40;48.00
16180;DHT22;8196;49.428;10.906;2022-07-10T14:30:52;21.30;48.90
16180;DHT22;8196;49.428;10.906;2022-07-10T14:33:19;21.20;49.40
16180;DHT22;8196;49.428;10.906;2022-07-10T14:35:46;21.20;49.40
16180;DHT22;8196;49.428;10.906;2022-07-10T14:38:13;22.20;48.40
16180;DHT22;8196;49.428;10.906;2022-07-10T14:40:39;22.20;48.50
16180;DHT22;8196;49.428;10.906;2022-07-10T14:43:06;22.30;48.80
16180;DHT22;8196;49.428;10.906;2022-07-10T14:48:20;22.00;48.10
16180;DHT22;8196;49.428;10.906;2022-07-10T14:50:47;21.50;48.60
16180;DHT22;8196;49.428;10.906;2022-07-10T14:53:14;21.50;49.60
16180;DHT22;8196;49.428;10.906;2022-07-10T14:55:41;22.10;47.60
16180;DHT22;8196;49.428;10.906;2022-07-10T14:58:08;22.70;47.60
16180;DHT22;8196;49.428;10.906;2022-07-10T15:00:35;22.60;46.70
16180;DHT22;8196;49.428;10.906;2022-07-10T15:03:02;22.40;46.90
16180;DHT22;8196;49.428;10.906;2022-07-10T15:05:30;22.60;48.50
16180;DHT22;8196;49.428;10.906;2022-07-10T15:07:57;22.70;47.20
16180;DHT22;8196;49.428;10.906;2022-07-10T15:10:23;22.40;46.20
16180;DHT22;8196;49.428;10.906;2022-07-10T15:12:50;22.00;47.70
16180;DHT22;8196;49.428;10.906;2022-07-10T15:17:45;21.30;49.90
16180;DHT22;8196;49.428;10.906;2022-07-10T15:22:39;24.00;46.90
16180;DHT22;8196;49.428;10.906;2022-07-10T15:25:07;26.30;42.30
16180;DHT22;8196;49.428;10.906;2022-07-10T15:27:34;28.00;38.90
16180;DHT22;8196;49.428;10.906;2022-07-10T15:30:00;25.60;40.10
16180;DHT22;8196;49.428;10.906;2022-07-10T15:32:27;24.90;43.30
16180;DHT22;8196;49.428;10.906;2022-07-10T15:34:54;25.90;44.60
16180;DHT22;8196;49.428;10.906;2022-07-10T15:37:21;23.70;43.50
16180;DHT22;8196;49.428;10.906;2022-07-10T15:39:49;23.10;45.80
16180;DHT22;8196;49.428;10.906;2022-07-10T15:42:16;22.30;46.60
16180;DHT22;8196;49.428;10.906;2022-07-10T15:44:43;21.70;48.10
16180;DHT22;8196;49.428;10.906;2022-07-10T15:47:09;21.70;49.70
16180;DHT22;8196;49.428;10.906;2022-07-10T15:49:38;22.00;48.60
16180;DHT22;8196;49.428;10.906;2022-07-10T15:52:05;22.30;48.90
16180;DHT22;8196;49.428;10.906;2022-07-10T15:54:32;22.00;48.70
16180;DHT22;8196;49.428;10.906;2022-07-10T15:56:59;21.80;49.00
16180;DHT22;8196;49.428;10.906;2022-07-10T15:59:26;21.70;49.60
16180;DHT22;8196;49.428;10.906;2022-07-10T16:01:53;21.70;49.40
16180;DHT22;8196;49.428;10.906;2022-07-10T16:04:22;22.30;48.30
16180;DHT22;8196;49.428;10.906;2022-07-10T16:06:49;23.10;47.80
16180;DHT22;8196;49.428;10.906;2022-07-10T16:09:17;22.60;46.70
16180;DHT22;8196;49.428;10.906;2022-07-10T16:11:44;22.40;47.80
16180;DHT22;8196;49.428;10.906;2022-07-10T16:14:11;21.80;48.60
16180;DHT22;8196;49.428;10.906;2022-07-10T16:16:38;21.30;48.70
16180;DHT22;8196;49.428;10.906;2022-07-10T16:19:06;20.90;49.90
16180;DHT22;8196;49.428;10.906;2022-07-10T16:21:34;20.60;50.60
16180;DHT22;8196;49.428;10.906;2022-07-10T16:24:02;20.30;51.60
16180;DHT22;8196;49.428;10.906;2022-07-10T16:26:29;20.50;52.90
16180;DHT22;8196;49.428;10.906;2022-07-10T16:28:59;21.50;49.40
16180;DHT22;8196;49.428;10.906;2022-07-10T16:31:25;22.20;49.30
16180;DHT22;8196;49.428;10.906;2022-07-10T16:33:53;22.50;48.40
16180;DHT22;8196;49.428;10.906;2022-07-10T16:36:20;22.90;47.70
16180;DHT22;8196;49.428;10.906;2022-07-10T16:38:47;23.70;46.80
16180;DHT22;8196;49.428;10.906;2022-07-10T16:41:14;26.00;44.00
16180;DHT22;8196;49.428;10.906;2022-07-10T16:43:40;28.10;39.10
16180;DHT22;8196;49.428;10.906;2022-07-10T16:46:08;29.00;37.20
16180;DHT22;8196;49.428;10.906;2022-07-10T16:48:35;28.40;37.40
16180;DHT22;8196;49.428;10.906;2022-07-10T16:51:02;28.70;36.40
16180;DHT22;8196;49.428;10.906;2022-07-10T16:53:29;28.70;37.50
16180;DHT22;8196;49.428;10.906;2022-07-10T16:55:56;29.50;36.30
16180;DHT22;8196;49.428;10.906;2022-07-10T16:58:22;29.20;36.10
16180;DHT22;8196;49.428;10.906;2022-07-10T17:00:50;27.90;37.20
16180;DHT22;8196;49.428;10.906;2022-07-10T17:03:17;26.30;39.00
16180;DHT22;8196;49.428;10.906;2022-07-10T17:05:44;24.70;42.70
16180;DHT22;8196;49.428;10.906;2022-07-10T17:08:12;22.70;45.50
16180;DHT22;8196;49.428;10.906;2022-07-10T17:10:41;22.40;47.00
16180;DHT22;8196;49.428;10.906;2022-07-10T17:13:08;21.60;48.40
16180;DHT22;8196;49.428;10.906;2022-07-10T17:15:35;21.30;49.20
16180;DHT22;8196;49.428;10.906;2022-07-10T17:18:02;20.90;49.30
16180;DHT22;8196;49.428;10.906;2022-07-10T17:20:30;20.90;49.70
16180;DHT22;8196;49.428;10.906;2022-07-10T17:22:57;20.80;50.50
16180;DHT22;8196;49.428;10.906;2022-07-10T17:25:23;20.70;50.30
16180;DHT22;8196;49.428;10.906;2022-07-10T17:27:50;20.10;51.40
16180;DHT22;8196;49.428;10.906;2022-07-10T17:30:17;20.20;52.70
16180;DHT22;8196;49.428;10.906;2022-07-10T17:32:47;20.00;52.30
16180;DHT22;8196;49.428;10.906;2022-07-10T17:35:21;19.80;52.60
16180;DHT22;8196;49.428;10.906;2022-07-10T17:37:48;19.60;52.60
16180;DHT22;8196;49.428;10.906;2022-07-10T17:40:15;19.60;52.70
16180;DHT22;8196;49.428;10.906;2022-07-10T17:42:42;19.50;53.10
16180;DHT22;8196;49.428;10.906;2022-07-10T17:45:09;19.30;52.90
16180;DHT22;8196;49.428;10.906;2022-07-10T17:47:42;19.20;52.90
16180;DHT22;8196;49.428;10.906;2022-07-10T17:50:09;19.20;53.00
16180;DHT22;8196;49.428;10.906;2022-07-10T17:52:36;19.10;53.30
16180;DHT22;8196;49.428;10.906;2022-07-10T17:55:04;19.00;53.90
16180;DHT22;8196;49.428;10.906;2022-07-10T17:57:31;18.80;53.70
16180;DHT22;8196;49.428;10.906;2022-07-10T17:59:57;18.80;53.70
16180;DHT22;8196;49.428;10.906;2022-07-10T18:02:24;18.80;54.20
16180;DHT22;8196;49.428;10.906;2022-07-10T18:04:51;18.90;54.70
16180;DHT22;8196;49.428;10.906;2022-07-10T18:07:18;18.80;54.40
16180;DHT22;8196;49.428;10.906;2022-07-10T18:09:45;18.80;55.00
16180;DHT22;8196;49.428;10.906;2022-07-10T18:12:12;18.80;55.00
16180;DHT22;8196;49.428;10.906;2022-07-10T18:14:39;18.60;54.90
16180;DHT22;8196;49.428;10.906;2022-07-10T18:17:09;18.60;55.10
16180;DHT22;8196;49.428;10.906;2022-07-10T18:19:36;18.60;55.20
16180;DHT22;8196;49.428;10.906;2022-07-10T18:22:02;18.60;55.80
16180;DHT22;8196;49.428;10.906;2022-07-10T18:24:30;18.50;55.90
16180;DHT22;8196;49.428;10.906;2022-07-10T18:26:56;18.50;55.90
16180;DHT22;8196;49.428;10.906;2022-07-10T18:29:23;18.50;56.10
16180;DHT22;8196;49.428;10.906;2022-07-10T18:31:50;18.50;56.00
16180;DHT22;8196;49.428;10.906;2022-07-10T18:37:01;18.50;56.20
16180;DHT22;8196;49.428;10.906;2022-07-10T18:39:29;18.30;56.30
16180;DHT22;8196;49.428;10.906;2022-07-10T18:41:56;18.30;56.50
16180;DHT22;8196;49.428;10.906;2022-07-10T18:44:23;18.20;57.10
16180;DHT22;8196;49.428;10.906;2022-07-10T18:46:54;18.10;57.40
16180;DHT22;8196;49.428;10.906;2022-07-10T19:04:07;18.20;58.30
16180;DHT22;8196;49.428;10.906;2022-07-10T19:26:13;17.60;60.10
16180;DHT22;8196;49.428;10.906;2022-07-10T20:28:06;17.40;63.50
16180;DHT22;8196;49.428;10.906;2022-07-10T20:37:54;17.30;64.20
16180;DHT22;8196;49.428;10.906;2022-07-10T21:19:53;17.10;66.30
16180;DHT22;8196;49.428;10.906;2022-07-10T21:34:38;16.90;67.70
16180;DHT22;8196;49.428;10.906;2022-07-10T21:49:21;16.40;70.80
16180;DHT22;8196;49.428;10.906;2022-07-10T22:23:42;16.30;71.60
16180;DHT22;8196;49.428;10.906;2022-07-10T22:58:32;16.10;75.00
16180;DHT22;8196;49.428;10.906;2022-07-10T23:13:16;15.70;77.10
16180;DHT22;8196;49.428;10.906;2022-07-10T23:32:54;15.20;80.30
16180;DHT22;8196;49.428;10.906;2022-07-10T23:45:15;14.70;83.00
